Time;durP1;ratioP1;P1;durP2;ratioP2;P2;SDS_P1;SDS_P2;PMS_P1;PMS_P2;Temp;Humidity;BMP_temperature;BMP_pressure;BME280_temperature;BME280_humidity;BME280_pressure;Samples;Min_cycle;Max_cycle;Signal;HPM_P1;HPM_P2
2021/10/28 00:19:37;;;;;;;0.30;0.30;;;22.90;59.90;;;;;;32000325;28;20039;-46
2021/10/28 00:34:39;;;;;;;5.88;0.88;;;23.30;59.70;;;;;;32008420;27;20062;-45
2021/10/28 00:49:41;;;;;;;1.73;0.60;;;23.40;59.40;;;;;;32023411;27;20067;-49
2021/10/28 01:04:43;;;;;;;2.90;0.50;;;23.40;59.80;;;;;;32020441;27;20039;-48
2021/10/28 01:19:51;;;;;;;0.20;0.20;;;23.30;60.50;;;;;;32018724;27;20043;-47
2021/10/28 01:34:53;;;;;;;0.50;0.22;;;23.30;60.30;;;;;;32017060;27;20050;-46
2021/10/28 01:49:55;;;;;;;0.10;0.10;;;23.20;60.50;;;;;;32014548;27;20050;-45
2021/10/28 02:04:57;;;;;;;0.10;0.10;;;23.20;60.50;;;;;;32012888;27;20066;-48
2021/10/28 02:19:59;;;;;;;0.10;0.10;;;23.10;60.30;;;;;;32011452;27;20089;-49
2021/10/28 02:35:02;;;;;;;0.65;0.20;;;23.00;60.10;;;;;;32009558;27;20088;-57
2021/10/28 02:50:04;;;;;;;0.17;0.17;;;23.00;59.80;;;;;;32007880;27;20039;-56
2021/10/28 03:05:08;;;;;;;0.20;0.20;;;22.90;59.90;;;;;;32004598;27;20054;-54
2021/10/28 03:35:15;;;;;;;0.38;0.10;;;22.90;60.40;;;;;;32003639;27;20047;-54
2021/10/28 04:36:11;;;;;;;1.30;0.10;;;23.30;60.70;;;;;;32023964;27;20035;-48
2021/10/28 04:51:14;;;;;;;5.55;3.40;;;23.20;60.50;;;;;;32022088;27;20089;-44
2021/10/28 05:06:16;;;;;;;24.80;9.70;;;23.20;59.90;;;;;;32019265;27;20062;-44
2021/10/28 05:21:18;;;;;;;42.40;15.35;;;22.90;54.90;;;;;;32017349;27;20067;-50
2021/10/28 05:36:20;;;;;;;32.90;19.40;;;22.30;48.20;;;;;;32012452;27;20063;-48
2021/10/28 05:51:24;;;;;;;61.45;41.85;;;22.60;48.70;;;;;;32014045;27;20099;-49
2021/10/28 06:06:26;;;;;;;47.83;31.98;;;22.70;49.60;;;;;;32010743;27;20074;-51
2021/10/28 06:21:28;;;;;;;53.88;40.15;;;22.90;50.30;;;;;;32009130;27;20088;-54
2021/10/28 06:36:35;;;;;;;49.35;28.27;;;22.90;51.00;;;;;;32008193;27;20543;-48
2021/10/28 06:51:39;;;;;;;32.58;24.92;;;22.70;45.20;;;;;;32009917;27;20058;-47
2021/10/28 07:06:41;;;;;;;12.77;9.00;;;22.60;45.50;;;;;;32009719;27;20159;-53
2021/10/28 08:22:49;;;;;;;4.03;3.22;;;23.00;50.10;;;;;;32005122;28;20108;-48
2021/10/28 08:37:57;;;;;;;2.25;2.05;;;22.90;50.50;;;;;;32003529;27;20098;-46
2021/10/28 08:53:23;;;;;;;1.45;1.10;;;23.00;51.00;;;;;;32006656;27;20043;-48
2021/10/28 09:54:46;;;;;;;1.30;1.00;;;23.10;51.80;;;;;;32019468;27;20099;-47
2021/10/28 10:10:02;;;;;;;1.02;0.90;;;23.00;52.20;;;;;;32015780;27;20081;-46
2021/10/28 10:25:35;;;;;;;0.60;0.60;;;23.00;52.30;;;;;;32016013;27;20445;-45
2021/10/28 12:43:51;;;;;;;3.67;0.60;;;23.40;52.80;;;;;;31996370;27;20134;-51
2021/10/28 16:33:05;;;;;;;24.13;8.75;;;22.90;55.00;;;;;;31974488;27;20098;-46
2021/10/28 16:48:07;;;;;;;20.85;8.82;;;22.80;54.30;;;;;;32011446;27;20058;-46
2021/10/28 17:03:09;;;;;;;18.13;9.18;;;22.70;54.30;;;;;;32011061;27;20055;-52
2021/10/28 17:18:11;;;;;;;17.60;8.75;;;22.90;53.90;;;;;;31990786;27;20055;-48
2021/10/28 17:33:14;;;;;;;21.30;9.73;;;22.90;54.30;;;;;;31991080;27;20062;-50
2021/10/28 17:48:16;;;;;;;23.15;8.63;;;22.80;54.80;;;;;;32001050;27;20050;-52
2021/10/28 18:03:20;;;;;;;12.93;9.10;;;22.80;54.60;;;;;;31998498;27;20114;-53
2021/10/28 18:18:23;;;;;;;15.05;8.32;;;22.80;54.50;;;;;;32000614;27;20050;-43
2021/10/28 18:33:33;;;;;;;24.17;8.70;;;22.80;54.50;;;;;;31994472;27;20363;-45
2021/10/28 18:48:35;;;;;;;24.88;8.88;;;22.80;55.20;;;;;;31995868;27;20070;-44
2021/10/28 19:03:41;;;;;;;22.50;8.15;;;22.70;55.30;;;;;;32006530;27;20071;-44
2021/10/28 19:18:44;;;;;;;14.52;6.90;;;23.00;54.90;;;;;;32004689;27;20050;-46
2021/10/28 19:34:02;;;;;;;14.98;7.03;;;23.20;55.00;;;;;;32004043;27;20047;-44
2021/10/28 19:49:04;;;;;;;10.00;6.63;;;23.20;55.00;;;;;;32001788;27;20070;-50
2021/10/28 20:34:50;;;;;;;10.52;6.00;;;23.00;55.30;;;;;;31997474;28;20046;-45
2021/10/28 20:49:52;;;;;;;9.32;6.32;;;23.00;55.40;;;;;;31974222;27;20047;-48
2021/10/28 21:04:54;;;;;;;8.75;5.68;;;22.90;55.60;;;;;;32020428;27;20051;-43
2021/10/28 21:19:57;;;;;;;9.20;6.15;;;22.80;55.60;;;;;;32021185;27;20035;-45
2021/10/28 21:34:59;;;;;;;7.95;5.80;;;22.80;55.90;;;;;;32011445;27;20095;-46
2021/10/28 21:50:01;;;;;;;11.25;5.15;;;22.90;56.00;;;;;;31940691;27;20051;-45
2021/10/28 22:50:38;;;;;;;8.35;5.10;;;23.10;56.10;;;;;;32008317;27;20076;-46
2021/10/28 23:20:55;;;;;;;6.22;4.47;;;23.00;56.40;;;;;;32004710;27;20094;-45
2021/10/28 23:35:57;;;;;;;7.55;5.15;;;22.90;56.70;;;;;;32003325;27;20047;-45
2021/10/28 23:51:00;;;;;;;6.07;4.75;;;22.80;56.80;;;;;;31997535;27;20121;-45
